Time;durP1;ratioP1;P1;durP2;ratioP2;P2;SDS_P1;SDS_P2;PMS_P1;PMS_P2;Temp;Humidity;BMP_temperature;BMP_pressure;BME280_temperature;BME280_humidity;BME280_pressure;Samples;Min_cycle;Max_cycle;Signal;HPM_P1;HPM_P2
2022/03/03 00:01:44;;;;;;;28.00;12.95;;;;;;;;;;4988209;28;106844;-68
2022/03/03 00:04:10;;;;;;;28.13;12.82;;;;;;;;;;4987584;28;106119;-68
2022/03/03 00:06:37;;;;;;;28.35;13.20;;;;;;;;;;4989547;28;106699;-68
2022/03/03 00:09:04;;;;;;;24.58;12.45;;;;;;;;;;4988444;28;106264;-68
2022/03/03 00:11:31;;;;;;;25.17;12.52;;;;;;;;;;4986706;28;105657;-68
2022/03/03 00:13:58;;;;;;;23.55;12.10;;;;;;;;;;4988621;28;106982;-68
2022/03/03 00:16:25;;;;;;;25.15;12.15;;;;;;;;;;4973306;28;107388;-68
2022/03/03 00:18:51;;;;;;;27.08;11.75;;;;;;;;;;4988935;28;106459;-68
2022/03/03 00:21:18;;;;;;;25.30;11.60;;;;;;;;;;4987670;28;106419;-66
2022/03/03 00:23:44;;;;;;;28.17;12.27;;;;;;;;;;4989028;28;105510;-68
2022/03/03 00:26:10;;;;;;;25.70;12.90;;;;;;;;;;4988188;28;107167;-67
2022/03/03 00:28:37;;;;;;;26.98;12.20;;;;;;;;;;4988152;28;106489;-66
2022/03/03 00:31:03;;;;;;;28.83;12.55;;;;;;;;;;4987545;28;106031;-66
2022/03/03 00:33:30;;;;;;;26.35;12.88;;;;;;;;;;4988367;28;105947;-66
2022/03/03 00:35:56;;;;;;;28.05;13.00;;;;;;;;;;4988693;28;107366;-68
2022/03/03 00:38:22;;;;;;;28.58;12.18;;;;;;;;;;4991931;28;106217;-68
2022/03/03 00:40:49;;;;;;;30.10;13.38;;;;;;;;;;4988400;28;108764;-68
2022/03/03 00:43:15;;;;;;;25.05;11.73;;;;;;;;;;4987365;28;105956;-68
2022/03/03 00:45:42;;;;;;;26.98;12.95;;;;;;;;;;4988011;28;106225;-67
2022/03/03 00:48:08;;;;;;;28.52;12.85;;;;;;;;;;4986391;28;107406;-69
2022/03/03 00:50:35;;;;;;;30.27;12.40;;;;;;;;;;4989746;28;106363;-68
2022/03/03 00:53:01;;;;;;;29.42;13.45;;;;;;;;;;4983800;28;108437;-67
2022/03/03 00:55:28;;;;;;;26.92;13.27;;;;;;;;;;4987931;28;107285;-66
2022/03/03 00:57:54;;;;;;;29.38;13.77;;;;;;;;;;4986616;28;106198;-68
2022/03/03 01:00:21;;;;;;;30.40;13.02;;;;;;;;;;4990489;28;107041;-66
2022/03/03 01:02:48;;;;;;;27.73;13.93;;;;;;;;;;4988456;28;107590;-66
2022/03/03 01:05:15;;;;;;;34.03;14.68;;;;;;;;;;4988288;28;108033;-67
2022/03/03 01:07:43;;;;;;;27.13;13.20;;;;;;;;;;4987866;28;107289;-68
2022/03/03 01:10:10;;;;;;;32.67;13.88;;;;;;;;;;4975206;28;106439;-68
2022/03/03 01:12:37;;;;;;;33.15;12.77;;;;;;;;;;4968967;28;106842;-67
2022/03/03 01:15:05;;;;;;;28.27;13.60;;;;;;;;;;4987105;28;107406;-66
2022/03/03 01:17:31;;;;;;;27.88;13.48;;;;;;;;;;4983834;28;106397;-68
2022/03/03 01:19:58;;;;;;;29.35;12.98;;;;;;;;;;4988105;28;106935;-67
2022/03/03 01:22:24;;;;;;;32.30;13.93;;;;;;;;;;4989911;28;107418;-68
2022/03/03 01:24:51;;;;;;;29.70;14.15;;;;;;;;;;4969919;28;106914;-68
2022/03/03 01:27:17;;;;;;;27.73;13.10;;;;;;;;;;4986296;28;106637;-68
2022/03/03 01:29:43;;;;;;;29.88;13.68;;;;;;;;;;4987215;28;106038;-68
2022/03/03 01:32:10;;;;;;;29.25;13.80;;;;;;;;;;4987474;28;106708;-69
2022/03/03 01:34:37;;;;;;;28.02;13.23;;;;;;;;;;4988534;28;107498;-68
2022/03/03 01:37:03;;;;;;;29.90;13.98;;;;;;;;;;4987678;28;106174;-67
2022/03/03 01:39:30;;;;;;;28.60;13.18;;;;;;;;;;4988267;28;106241;-67
2022/03/03 01:41:57;;;;;;;28.35;12.88;;;;;;;;;;4989203;28;106860;-66
2022/03/03 01:44:24;;;;;;;31.58;13.40;;;;;;;;;;4987751;28;105877;-66
2022/03/03 01:46:52;;;;;;;31.42;13.35;;;;;;;;;;4986870;28;106299;-66
2022/03/03 01:49:19;;;;;;;31.52;13.45;;;;;;;;;;4982482;28;107052;-66
2022/03/03 01:51:46;;;;;;;26.08;13.30;;;;;;;;;;4983970;28;106336;-66
2022/03/03 01:54:12;;;;;;;32.55;14.00;;;;;;;;;;4986195;28;108494;-68
2022/03/03 01:56:42;;;;;;;28.70;13.35;;;;;;;;;;4987361;28;105893;-68
2022/03/03 01:59:09;;;;;;;31.00;13.48;;;;;;;;;;4971285;28;106990;-68
2022/03/03 02:01:36;;;;;;;30.05;13.82;;;;;;;;;;4990454;28;106260;-68
2022/03/03 02:04:04;;;;;;;28.55;13.65;;;;;;;;;;4993778;28;106211;-68
2022/03/03 02:06:31;;;;;;;31.67;13.68;;;;;;;;;;4988673;28;107275;-66
2022/03/03 02:08:57;;;;;;;30.33;13.23;;;;;;;;;;4989688;28;106396;-66
2022/03/03 02:11:23;;;;;;;27.70;13.20;;;;;;;;;;4987767;28;107220;-66
2022/03/03 02:13:50;;;;;;;27.98;13.05;;;;;;;;;;4978800;28;107051;-66
2022/03/03 02:16:16;;;;;;;30.15;13.95;;;;;;;;;;4991149;28;105886;-66
2022/03/03 02:18:43;;;;;;;27.38;12.75;;;;;;;;;;4990202;28;106349;-66
2022/03/03 02:21:13;;;;;;;28.05;12.38;;;;;;;;;;4989855;28;106121;-66
2022/03/03 02:23:40;;;;;;;31.25;13.90;;;;;;;;;;4990313;28;105870;-66
2022/03/03 02:26:15;;;;;;;32.42;13.18;;;;;;;;;;4993296;28;105853;-67
2022/03/03 02:28:42;;;;;;;30.50;12.90;;;;;;;;;;4990609;28;107817;-66
2022/03/03 02:31:08;;;;;;;29.17;12.40;;;;;;;;;;4989506;28;106651;-67
2022/03/03 02:33:35;;;;;;;29.45;12.63;;;;;;;;;;4990005;28;107388;-66
2022/03/03 02:36:21;;;;;;;31.92;13.00;;;;;;;;;;4989888;28;106598;-66
2022/03/03 02:38:48;;;;;;;28.75;12.93;;;;;;;;;;4990264;28;107351;-66
2022/03/03 02:41:14;;;;;;;28.85;12.50;;;;;;;;;;4981527;28;107496;-66
2022/03/03 02:43:40;;;;;;;28.48;12.80;;;;;;;;;;4985291;28;105846;-66
2022/03/03 02:46:07;;;;;;;29.63;12.70;;;;;;;;;;4990489;28;106843;-66
2022/03/03 02:48:33;;;;;;;29.88;13.68;;;;;;;;;;4993400;28;106806;-66
2022/03/03 02:51:00;;;;;;;33.22;13.57;;;;;;;;;;4989845;28;106612;-68
2022/03/03 02:53:26;;;;;;;25.73;12.50;;;;;;;;;;4990044;28;106481;-66
2022/03/03 02:55:54;;;;;;;29.50;12.68;;;;;;;;;;4990287;28;106225;-67
2022/03/03 02:58:20;;;;;;;30.05;13.15;;;;;;;;;;4989814;28;106864;-66
2022/03/03 03:00:47;;;;;;;26.15;13.13;;;;;;;;;;4988658;28;107369;-67
2022/03/03 03:03:15;;;;;;;28.38;12.73;;;;;;;;;;4988707;28;107228;-66
2022/03/03 03:05:42;;;;;;;28.48;13.77;;;;;;;;;;4989704;28;106255;-66
2022/03/03 03:08:09;;;;;;;31.17;14.07;;;;;;;;;;4988727;28;106326;-67
2022/03/03 03:10:36;;;;;;;28.17;13.32;;;;;;;;;;4992560;28;105858;-66
2022/03/03 03:13:03;;;;;;;32.08;13.30;;;;;;;;;;4989195;28;106926;-66
2022/03/03 03:15:30;;;;;;;32.42;13.00;;;;;;;;;;4989681;28;106141;-66
2022/03/03 03:18:08;;;;;;;30.83;13.75;;;;;;;;;;4972587;28;107823;-66
2022/03/03 03:20:34;;;;;;;30.83;14.00;;;;;;;;;;4978672;28;107384;-66
2022/03/03 03:23:01;;;;;;;37.30;13.77;;;;;;;;;;4988903;28;107606;-66
2022/03/03 03:25:27;;;;;;;30.98;14.75;;;;;;;;;;4988412;28;107134;-66
2022/03/03 03:27:54;;;;;;;29.90;13.38;;;;;;;;;;4989050;28;106832;-66
2022/03/03 03:30:20;;;;;;;32.03;14.27;;;;;;;;;;4985739;28;106331;-66
2022/03/03 03:32:46;;;;;;;32.80;14.27;;;;;;;;;;4992856;28;106820;-66
2022/03/03 03:35:13;;;;;;;31.83;14.55;;;;;;;;;;4988128;28;107215;-67
2022/03/03 03:37:39;;;;;;;31.53;14.50;;;;;;;;;;4983959;28;105991;-66
2022/03/03 03:40:07;;;;;;;31.95;13.70;;;;;;;;;;4989204;28;107294;-66
2022/03/03 03:42:33;;;;;;;35.23;14.43;;;;;;;;;;4988990;28;106421;-66
2022/03/03 03:45:00;;;;;;;31.53;12.67;;;;;;;;;;4988998;28;107355;-66
2022/03/03 03:47:27;;;;;;;28.52;13.77;;;;;;;;;;4988217;28;107697;-66
2022/03/03 03:49:53;;;;;;;30.33;12.50;;;;;;;;;;4988098;28;105888;-66
2022/03/03 03:52:19;;;;;;;30.00;13.23;;;;;;;;;;4974953;28;106755;-68
2022/03/03 03:54:46;;;;;;;30.20;13.20;;;;;;;;;;4988771;28;106073;-66
2022/03/03 03:57:12;;;;;;;33.77;13.07;;;;;;;;;;4986816;28;106376;-68
2022/03/03 03:59:38;;;;;;;32.57;14.23;;;;;;;;;;4988132;28;106772;-67
2022/03/03 04:02:05;;;;;;;29.40;13.77;;;;;;;;;;4989403;28;106703;-67
2022/03/03 04:04:31;;;;;;;30.95;13.70;;;;;;;;;;4978273;28;107898;-66
2022/03/03 04:06:58;;;;;;;31.85;13.90;;;;;;;;;;4988538;28;107494;-66
2022/03/03 04:09:24;;;;;;;34.43;13.83;;;;;;;;;;4988857;28;105944;-66
2022/03/03 04:11:51;;;;;;;34.13;14.87;;;;;;;;;;4987818;28;106752;-66
2022/03/03 04:14:17;;;;;;;28.73;13.53;;;;;;;;;;4990481;28;107342;-66
2022/03/03 04:16:43;;;;;;;34.07;13.80;;;;;;;;;;4989006;28;107158;-66
2022/03/03 04:19:10;;;;;;;31.20;13.97;;;;;;;;;;4988241;28;107452;-66
2022/03/03 04:21:36;;;;;;;31.83;13.83;;;;;;;;;;4987902;28;107171;-66
2022/03/03 04:24:03;;;;;;;29.33;13.73;;;;;;;;;;4988606;28;106441;-68
2022/03/03 04:26:29;;;;;;;35.07;14.40;;;;;;;;;;4988016;28;106982;-66
2022/03/03 04:28:56;;;;;;;31.85;13.95;;;;;;;;;;4988389;28;105988;-66
2022/03/03 04:31:22;;;;;;;27.37;13.43;;;;;;;;;;4987534;28;106541;-66
2022/03/03 04:33:48;;;;;;;36.63;13.53;;;;;;;;;;4987895;28;107194;-68
2022/03/03 04:36:15;;;;;;;33.63;14.70;;;;;;;;;;4991784;28;106200;-66
2022/03/03 04:38:42;;;;;;;35.67;14.13;;;;;;;;;;4987816;28;106306;-66
2022/03/03 04:41:09;;;;;;;30.23;13.57;;;;;;;;;;4986904;28;106378;-66
2022/03/03 04:43:35;;;;;;;36.43;14.63;;;;;;;;;;4988488;28;106181;-66
2022/03/03 04:46:02;;;;;;;34.83;15.27;;;;;;;;;;4986883;28;109123;-66
2022/03/03 04:48:31;;;;;;;37.40;15.13;;;;;;;;;;4988787;28;106280;-66
2022/03/03 04:50:58;;;;;;;34.22;15.85;;;;;;;;;;4987547;28;106851;-67
2022/03/03 04:53:25;;;;;;;36.07;15.77;;;;;;;;;;4978509;28;107840;-66
2022/03/03 04:55:52;;;;;;;31.50;13.93;;;;;;;;;;4988817;28;108463;-66
2022/03/03 04:58:19;;;;;;;34.37;14.63;;;;;;;;;;4990841;28;106922;-66
2022/03/03 05:00:46;;;;;;;42.40;16.57;;;;;;;;;;4987535;28;106235;-67
2022/03/03 05:03:12;;;;;;;36.47;16.47;;;;;;;;;;4985696;28;106332;-66
2022/03/03 05:05:39;;;;;;;36.30;15.80;;;;;;;;;;4988401;28;106227;-69
2022/03/03 05:08:05;;;;;;;35.97;15.60;;;;;;;;;;4984737;28;106846;-68
2022/03/03 05:10:32;;;;;;;36.10;15.50;;;;;;;;;;4985134;28;106530;-68
2022/03/03 05:12:58;;;;;;;32.20;14.80;;;;;;;;;;4968352;28;107572;-66
2022/03/03 05:15:25;;;;;;;38.07;15.57;;;;;;;;;;4982499;28;108198;-68
2022/03/03 05:17:53;;;;;;;35.60;15.13;;;;;;;;;;4985853;28;107975;-66
2022/03/03 05:20:19;;;;;;;36.00;14.87;;;;;;;;;;4989295;28;106817;-68
2022/03/03 05:22:46;;;;;;;35.10;14.73;;;;;;;;;;4990836;28;106858;-66
2022/03/03 05:25:12;;;;;;;34.30;15.13;;;;;;;;;;4994536;28;107593;-66
2022/03/03 05:27:40;;;;;;;32.30;14.40;;;;;;;;;;4972484;28;105802;-67
2022/03/03 05:30:07;;;;;;;34.90;14.70;;;;;;;;;;4977916;28;106090;-66
2022/03/03 05:32:34;;;;;;;29.57;14.03;;;;;;;;;;4987760;28;106321;-66
2022/03/03 05:35:00;;;;;;;35.90;14.50;;;;;;;;;;4992386;28;105734;-66
2022/03/03 05:37:27;;;;;;;35.67;15.17;;;;;;;;;;4991704;28;107355;-67
2022/03/03 05:39:53;;;;;;;34.63;14.13;;;;;;;;;;4990803;28;107326;-67
2022/03/03 05:42:20;;;;;;;35.00;15.70;;;;;;;;;;4996848;28;107299;-66
2022/03/03 05:44:47;;;;;;;37.23;15.63;;;;;;;;;;4999755;28;106774;-66
2022/03/03 05:47:14;;;;;;;37.33;14.63;;;;;;;;;;4991711;28;105991;-66
2022/03/03 05:49:42;;;;;;;36.83;15.23;;;;;;;;;;4989717;28;106687;-66
2022/03/03 05:52:09;;;;;;;35.23;14.83;;;;;;;;;;4989655;28;107791;-67
2022/03/03 05:54:36;;;;;;;37.53;14.83;;;;;;;;;;4967469;28;105694;-67
2022/03/03 05:57:04;;;;;;;37.33;15.27;;;;;;;;;;4982340;28;106419;-68
2022/03/03 05:59:31;;;;;;;34.43;14.70;;;;;;;;;;4989832;28;107378;-66
2022/03/03 06:01:58;;;;;;;33.83;14.87;;;;;;;;;;4994764;28;107221;-66
2022/03/03 06:04:26;;;;;;;35.03;14.90;;;;;;;;;;4989701;28;107155;-67
2022/03/03 06:06:58;;;;;;;40.37;16.00;;;;;;;;;;4990531;28;106181;-66
2022/03/03 06:09:28;;;;;;;34.67;15.03;;;;;;;;;;4991997;28;106779;-66
2022/03/03 06:12:13;;;;;;;35.70;15.37;;;;;;;;;;4990167;28;106759;-67
2022/03/03 06:14:40;;;;;;;37.50;15.93;;;;;;;;;;4988638;28;106609;-66
2022/03/03 06:17:07;;;;;;;38.23;14.90;;;;;;;;;;4982695;28;107147;-66
2022/03/03 06:19:39;;;;;;;35.63;14.10;;;;;;;;;;4988602;28;107261;-66
2022/03/03 06:22:06;;;;;;;37.40;15.10;;;;;;;;;;4991404;28;107056;-66
2022/03/03 06:24:33;;;;;;;38.93;15.60;;;;;;;;;;4981052;28;105812;-66
2022/03/03 06:27:00;;;;;;;33.80;14.63;;;;;;;;;;4983439;28;105942;-66
2022/03/03 06:29:27;;;;;;;36.60;14.93;;;;;;;;;;4986963;28;106790;-68
2022/03/03 06:31:53;;;;;;;36.13;15.20;;;;;;;;;;4990547;28;107424;-68
2022/03/03 06:34:20;;;;;;;39.13;15.70;;;;;;;;;;4990485;28;107619;-68
2022/03/03 06:36:47;;;;;;;38.13;15.73;;;;;;;;;;4990283;28;105777;-68
2022/03/03 06:39:13;;;;;;;43.23;16.57;;;;;;;;;;4989924;28;107403;-67
2022/03/03 06:41:40;;;;;;;41.13;15.00;;;;;;;;;;4971435;28;106595;-66
2022/03/03 06:44:07;;;;;;;43.60;16.63;;;;;;;;;;4988206;28;107088;-69
2022/03/03 06:46:33;;;;;;;39.07;16.13;;;;;;;;;;4972128;28;107496;-65
2022/03/03 06:49:00;;;;;;;48.37;18.97;;;;;;;;;;4989897;28;107688;-66
2022/03/03 06:51:28;;;;;;;44.90;16.67;;;;;;;;;;4988822;28;107529;-69
2022/03/03 06:53:59;;;;;;;42.30;17.00;;;;;;;;;;4989367;28;106205;-66
2022/03/03 06:56:27;;;;;;;42.17;17.47;;;;;;;;;;4987108;28;107141;-65
2022/03/03 06:58:55;;;;;;;38.23;15.90;;;;;;;;;;4989267;28;106187;-65
2022/03/03 07:01:21;;;;;;;44.17;17.37;;;;;;;;;;4971302;28;105944;-66
2022/03/03 07:03:48;;;;;;;41.20;16.67;;;;;;;;;;4988948;28;105734;-66
2022/03/03 07:06:14;;;;;;;37.73;15.27;;;;;;;;;;4987832;28;106447;-67
2022/03/03 07:08:41;;;;;;;39.60;17.10;;;;;;;;;;4985270;28;106262;-65
2022/03/03 07:11:08;;;;;;;36.03;15.13;;;;;;;;;;4987026;28;106727;-65
2022/03/03 07:13:34;;;;;;;38.20;15.23;;;;;;;;;;4988182;28;106460;-65
2022/03/03 07:16:16;;;;;;;35.53;15.27;;;;;;;;;;4988838;28;107741;-66
2022/03/03 07:18:44;;;;;;;35.00;14.60;;;;;;;;;;4988411;28;106212;-65
2022/03/03 07:21:14;;;;;;;32.80;14.03;;;;;;;;;;4988406;28;105944;-66
2022/03/03 07:23:47;;;;;;;39.70;15.98;;;;;;;;;;4989186;28;106909;-66
2022/03/03 07:26:14;;;;;;;38.30;15.60;;;;;;;;;;4987179;28;107860;-65
2022/03/03 07:28:44;;;;;;;39.97;16.25;;;;;;;;;;4985908;28;106772;-68
2022/03/03 07:31:13;;;;;;;35.72;15.30;;;;;;;;;;4989963;28;106860;-70
2022/03/03 07:33:40;;;;;;;35.40;15.88;;;;;;;;;;4986033;28;105952;-68
2022/03/03 07:36:07;;;;;;;37.90;15.57;;;;;;;;;;4983351;28;106687;-67
2022/03/03 07:38:35;;;;;;;34.85;15.27;;;;;;;;;;4985039;28;106466;-68
2022/03/03 07:41:02;;;;;;;34.28;15.48;;;;;;;;;;4987786;28;106580;-68
2022/03/03 07:43:28;;;;;;;38.80;15.90;;;;;;;;;;4988697;28;106355;-68
2022/03/03 07:45:54;;;;;;;39.95;16.52;;;;;;;;;;4989289;28;106762;-67
2022/03/03 07:48:22;;;;;;;39.88;16.08;;;;;;;;;;4988466;28;106690;-68
2022/03/03 07:50:48;;;;;;;36.60;16.55;;;;;;;;;;4986662;28;106726;-68
2022/03/03 07:53:15;;;;;;;35.97;15.80;;;;;;;;;;4991687;28;107791;-67
2022/03/03 07:55:43;;;;;;;38.35;16.55;;;;;;;;;;4982427;28;108761;-67
2022/03/03 07:58:17;;;;;;;41.45;16.77;;;;;;;;;;4987850;28;106302;-67
2022/03/03 08:00:48;;;;;;;37.80;17.45;;;;;;;;;;4987871;28;106244;-67
2022/03/03 08:03:17;;;;;;;43.67;18.70;;;;;;;;;;4984241;28;106682;-68
2022/03/03 08:05:50;;;;;;;42.10;19.08;;;;;;;;;;4966120;28;107384;-69
2022/03/03 08:08:21;;;;;;;45.30;18.17;;;;;;;;;;4987781;28;107435;-69
2022/03/03 08:10:48;;;;;;;45.60;18.45;;;;;;;;;;4984288;28;106797;-68
2022/03/03 08:13:15;;;;;;;43.78;17.85;;;;;;;;;;4989416;28;107984;-68
2022/03/03 08:15:43;;;;;;;43.35;17.83;;;;;;;;;;4988326;28;106757;-68
2022/03/03 08:18:10;;;;;;;40.63;17.77;;;;;;;;;;4987944;28;108435;-69
2022/03/03 08:20:38;;;;;;;40.00;17.77;;;;;;;;;;4977781;28;112147;-70
2022/03/03 08:23:05;;;;;;;54.85;19.05;;;;;;;;;;4972677;28;110527;-69
2022/03/03 08:25:32;;;;;;;38.65;15.80;;;;;;;;;;4981313;28;107170;-67
2022/03/03 08:27:58;;;;;;;54.20;16.85;;;;;;;;;;4978444;28;106263;-68
2022/03/03 08:30:25;;;;;;;33.60;15.32;;;;;;;;;;4986529;28;106796;-68
2022/03/03 08:33:06;;;;;;;31.02;16.02;;;;;;;;;;4980872;28;107247;-68
2022/03/03 08:35:36;;;;;;;29.48;14.65;;;;;;;;;;4985326;28;110736;-68
2022/03/03 08:38:08;;;;;;;34.22;16.60;;;;;;;;;;4979199;28;106301;-69
2022/03/03 08:40:35;;;;;;;31.15;14.57;;;;;;;;;;4987660;28;106492;-70
2022/03/03 08:43:03;;;;;;;33.78;14.90;;;;;;;;;;4984925;28;108529;-70
2022/03/03 08:45:31;;;;;;;34.50;16.00;;;;;;;;;;4986377;28;106521;-69
2022/03/03 08:48:00;;;;;;;32.20;14.63;;;;;;;;;;4987066;28;106074;-70
2022/03/03 08:50:30;;;;;;;30.52;15.73;;;;;;;;;;4979667;28;108532;-70
2022/03/03 08:52:58;;;;;;;31.95;15.48;;;;;;;;;;4979652;28;107256;-68
2022/03/03 08:55:25;;;;;;;30.65;14.63;;;;;;;;;;4982873;28;108477;-67
2022/03/03 08:57:52;;;;;;;31.00;15.45;;;;;;;;;;4988809;28;107072;-68
2022/03/03 09:00:18;;;;;;;29.27;13.55;;;;;;;;;;4985708;28;107154;-67
2022/03/03 09:02:46;;;;;;;26.15;13.00;;;;;;;;;;4978730;28;107175;-68
2022/03/03 09:05:12;;;;;;;25.40;13.80;;;;;;;;;;4984051;28;108908;-67
2022/03/03 09:07:39;;;;;;;27.98;13.70;;;;;;;;;;4955897;28;106853;-68
2022/03/03 09:10:05;;;;;;;23.35;13.10;;;;;;;;;;4984708;28;108158;-68
2022/03/03 09:12:32;;;;;;;28.58;13.27;;;;;;;;;;4986069;28;109768;-68
2022/03/03 09:14:58;;;;;;;24.58;12.43;;;;;;;;;;4986003;28;106257;-68
2022/03/03 09:17:31;;;;;;;24.23;13.30;;;;;;;;;;4980740;28;105685;-68
2022/03/03 09:20:00;;;;;;;26.90;12.98;;;;;;;;;;4982852;28;107308;-68
2022/03/03 09:22:27;;;;;;;25.42;13.10;;;;;;;;;;4981602;28;107977;-68
2022/03/03 09:24:54;;;;;;;23.95;12.82;;;;;;;;;;4981064;28;106164;-68
2022/03/03 09:27:21;;;;;;;27.02;12.52;;;;;;;;;;4976389;28;106760;-66
2022/03/03 09:29:47;;;;;;;21.42;12.07;;;;;;;;;;4986226;28;106277;-67
2022/03/03 09:32:14;;;;;;;24.63;12.88;;;;;;;;;;4986603;28;109178;-67
2022/03/03 09:34:40;;;;;;;22.33;12.55;;;;;;;;;;4979426;28;107724;-67
2022/03/03 09:37:06;;;;;;;24.13;12.57;;;;;;;;;;4980068;28;107136;-67
2022/03/03 09:39:33;;;;;;;27.65;12.90;;;;;;;;;;4981555;28;107397;-66
2022/03/03 09:41:59;;;;;;;26.02;13.35;;;;;;;;;;4987542;28;107310;-66
2022/03/03 09:44:27;;;;;;;26.67;12.98;;;;;;;;;;4979564;28;106540;-67
2022/03/03 09:46:55;;;;;;;25.83;12.95;;;;;;;;;;4983159;28;106246;-67
2022/03/03 09:49:22;;;;;;;23.40;12.77;;;;;;;;;;4986517;28;107584;-67
2022/03/03 09:51:50;;;;;;;23.70;12.25;;;;;;;;;;4988250;28;106678;-67
2022/03/03 09:54:16;;;;;;;22.45;11.75;;;;;;;;;;4982566;28;106269;-67
2022/03/03 09:56:45;;;;;;;20.67;12.27;;;;;;;;;;4979344;28;107366;-67
2022/03/03 09:59:12;;;;;;;23.17;12.27;;;;;;;;;;4966536;28;107642;-67
2022/03/03 10:01:38;;;;;;;23.92;12.60;;;;;;;;;;4981666;28;106685;-67
2022/03/03 10:04:16;;;;;;;24.13;12.43;;;;;;;;;;4977197;28;108350;-67
2022/03/03 10:06:42;;;;;;;20.95;10.85;;;;;;;;;;4980000;28;106935;-68
2022/03/03 10:09:09;;;;;;;28.52;11.82;;;;;;;;;;4979495;28;107859;-68
2022/03/03 10:11:45;;;;;;;26.65;12.50;;;;;;;;;;4979440;28;106181;-68
2022/03/03 10:14:12;;;;;;;22.13;11.27;;;;;;;;;;4977891;28;107939;-66
2022/03/03 10:16:46;;;;;;;19.00;10.10;;;;;;;;;;4978472;28;109284;-69
2022/03/03 10:19:33;;;;;;;20.75;11.85;;;;;;;;;;4981121;28;106932;-69
2022/03/03 10:21:59;;;;;;;19.83;11.30;;;;;;;;;;4985289;28;106589;-69
2022/03/03 10:24:29;;;;;;;;;;;;;;;;;;4986487;28;106585;-67
2022/03/03 10:26:59;;;;;;;22.13;11.52;;;;;;;;;;4982233;28;124971;-69
2022/03/03 10:29:26;;;;;;;20.08;11.68;;;;;;;;;;4982725;28;108112;-69
2022/03/03 10:31:53;;;;;;;21.05;11.60;;;;;;;;;;4988931;28;107257;-69
2022/03/03 10:34:21;;;;;;;18.50;10.38;;;;;;;;;;4963734;28;108793;-70
2022/03/03 10:36:59;;;;;;;21.55;10.43;;;;;;;;;;4983478;28;108793;-69
2022/03/03 10:39:37;;;;;;;18.70;10.73;;;;;;;;;;4981899;28;107995;-70
2022/03/03 10:42:11;;;;;;;21.02;11.30;;;;;;;;;;4984810;28;106129;-70
2022/03/03 10:44:37;;;;;;;18.80;11.10;;;;;;;;;;4988394;28;107691;-70
2022/03/03 10:47:08;;;;;;;19.77;12.02;;;;;;;;;;4992101;28;107575;-69
2022/03/03 10:49:36;;;;;;;18.80;11.20;;;;;;;;;;4989888;28;106484;-69
2022/03/03 10:52:11;;;;;;;18.52;11.45;;;;;;;;;;4982904;28;107393;-69
2022/03/03 10:54:47;;;;;;;18.13;10.88;;;;;;;;;;4983690;28;106377;-69
2022/03/03 10:57:28;;;;;;;18.27;11.02;;;;;;;;;;4975774;28;108600;-69
2022/03/03 10:59:56;;;;;;;17.85;10.30;;;;;;;;;;4984062;28;106326;-67
2022/03/03 11:02:24;;;;;;;16.53;9.77;;;;;;;;;;4989642;28;108095;-69
2022/03/03 11:04:50;;;;;;;18.65;10.05;;;;;;;;;;4986432;28;107122;-69
2022/03/03 11:07:18;;;;;;;15.50;9.57;;;;;;;;;;4984092;28;108216;-69
2022/03/03 11:09:45;;;;;;;16.88;10.13;;;;;;;;;;4984840;28;107054;-67
2022/03/03 11:12:11;;;;;;;15.43;9.32;;;;;;;;;;4967841;28;107565;-69
2022/03/03 11:14:39;;;;;;;14.90;9.32;;;;;;;;;;4988670;28;108156;-69
2022/03/03 11:17:18;;;;;;;15.10;9.60;;;;;;;;;;4983901;28;105952;-68
2022/03/03 11:19:44;;;;;;;14.13;9.43;;;;;;;;;;4986257;28;107482;-67
2022/03/03 11:22:14;;;;;;;14.60;9.65;;;;;;;;;;4983242;28;106467;-68
2022/03/03 11:24:41;;;;;;;15.70;9.88;;;;;;;;;;4986697;28;107375;-68
2022/03/03 11:27:08;;;;;;;14.85;9.20;;;;;;;;;;4985990;28;107649;-69
2022/03/03 11:29:38;;;;;;;15.02;9.38;;;;;;;;;;4986218;28;106262;-70
2022/03/03 11:32:08;;;;;;;16.60;9.55;;;;;;;;;;4981141;28;110215;-69
2022/03/03 11:34:34;;;;;;;12.65;8.88;;;;;;;;;;4985411;28;107040;-68
2022/03/03 11:37:36;;;;;;;18.88;9.25;;;;;;;;;;4983828;28;107143;-68
2022/03/03 11:40:03;;;;;;;16.33;9.32;;;;;;;;;;4881086;28;108229;-67
2022/03/03 11:42:31;;;;;;;14.15;9.57;;;;;;;;;;4961232;28;108611;-67
2022/03/03 11:45:09;;;;;;;15.40;8.95;;;;;;;;;;4982437;28;107015;-67
2022/03/03 11:47:37;;;;;;;14.20;9.63;;;;;;;;;;4978907;28;107962;-67
2022/03/03 11:50:16;;;;;;;15.73;9.68;;;;;;;;;;4981125;28;106273;-68
2022/03/03 11:52:43;;;;;;;;;;;;;;;;;;4978733;28;106631;-65
2022/03/03 11:55:24;;;;;;;15.15;8.75;;;;;;;;;;4987718;28;134889;-67
2022/03/03 11:57:57;;;;;;;14.85;9.23;;;;;;;;;;4981130;28;107814;-69
2022/03/03 12:00:23;;;;;;;14.13;9.82;;;;;;;;;;4979720;28;107102;-67
2022/03/03 12:02:58;;;;;;;14.57;10.15;;;;;;;;;;4985033;28;107000;-67
2022/03/03 12:05:28;;;;;;;17.30;9.70;;;;;;;;;;4984850;28;106229;-67
2022/03/03 12:07:54;;;;;;;;;;;;;;;;;;4981492;28;107576;-65
2022/03/03 12:10:20;;;;;;;13.98;9.85;;;;;;;;;;4980929;28;122239;-68
2022/03/03 12:12:47;;;;;;;13.48;9.50;;;;;;;;;;4980405;28;108240;-67
2022/03/03 12:15:13;;;;;;;15.30;9.70;;;;;;;;;;4982229;28;108013;-68
2022/03/03 12:17:45;;;;;;;14.40;10.52;;;;;;;;;;4980520;28;108348;-67
2022/03/03 12:20:23;;;;;;;16.10;10.95;;;;;;;;;;4978900;28;109244;-68
2022/03/03 12:23:11;;;;;;;18.17;10.18;;;;;;;;;;4980241;28;107220;-68
2022/03/03 12:25:50;;;;;;;15.75;10.30;;;;;;;;;;4980574;28;109496;-68
2022/03/03 12:28:17;;;;;;;;;;;;;;;;;;4983062;28;107930;-65
2022/03/03 12:30:44;;;;;;;15.57;11.10;;;;;;;;;;4976543;28;123657;-66
2022/03/03 12:33:23;;;;;;;16.88;11.32;;;;;;;;;;4975849;28;107566;-65
2022/03/03 12:35:50;;;;;;;14.50;10.52;;;;;;;;;;4980034;28;108375;-67
2022/03/03 12:38:17;;;;;;;14.25;10.85;;;;;;;;;;4990043;28;106366;-67
2022/03/03 12:40:43;;;;;;;15.40;11.43;;;;;;;;;;4982003;28;107914;-68
2022/03/03 12:43:16;;;;;;;15.25;11.57;;;;;;;;;;4984576;28;106735;-65
2022/03/03 12:45:43;;;;;;;16.33;11.20;;;;;;;;;;4967583;28;109855;-65
2022/03/03 12:48:10;;;;;;;14.75;10.93;;;;;;;;;;4985256;28;108923;-65
2022/03/03 12:50:37;;;;;;;16.95;11.05;;;;;;;;;;4986399;28;108655;-65
2022/03/03 12:53:07;;;;;;;15.80;11.18;;;;;;;;;;4974139;28;107976;-65
2022/03/03 12:55:43;;;;;;;18.55;11.48;;;;;;;;;;4979770;28;107713;-65
2022/03/03 12:58:11;;;;;;;20.27;11.82;;;;;;;;;;4985170;28;108510;-65
2022/03/03 13:00:38;;;;;;;16.17;11.10;;;;;;;;;;4988527;28;108308;-66
2022/03/03 13:03:05;;;;;;;15.43;12.35;;;;;;;;;;4986063;28;109227;-65
2022/03/03 13:05:37;;;;;;;16.40;11.32;;;;;;;;;;4985026;28;110306;-66
2022/03/03 13:08:05;;;;;;;17.65;12.35;;;;;;;;;;4984968;28;110134;-65
2022/03/03 13:10:33;;;;;;;16.65;11.20;;;;;;;;;;4966265;28;108903;-64
2022/03/03 13:12:59;;;;;;;15.03;11.33;;;;;;;;;;4984919;28;108443;-65
2022/03/03 13:15:27;;;;;;;13.25;11.20;;;;;;;;;;4984798;28;110704;-64
2022/03/03 13:18:11;;;;;;;17.50;11.13;;;;;;;;;;4970354;28;109037;-66
2022/03/03 13:20:41;;;;;;;15.80;11.20;;;;;;;;;;4966713;28;109287;-66
2022/03/03 13:23:12;;;;;;;15.52;12.23;;;;;;;;;;4988156;28;110452;-65
2022/03/03 13:25:40;;;;;;;14.55;11.30;;;;;;;;;;4983981;28;108717;-65
2022/03/03 13:28:07;;;;;;;15.23;11.32;;;;;;;;;;4984388;28;109497;-67
2022/03/03 13:30:34;;;;;;;15.25;11.35;;;;;;;;;;4984619;28;108955;-65
2022/03/03 13:33:00;;;;;;;14.73;10.35;;;;;;;;;;4974068;28;109783;-65
2022/03/03 13:35:37;;;;;;;14.98;9.95;;;;;;;;;;4984591;28;109895;-64
2022/03/03 13:38:04;;;;;;;12.95;10.52;;;;;;;;;;4984563;28;108708;-65
2022/03/03 13:40:31;;;;;;;15.15;11.02;;;;;;;;;;4977582;28;110555;-64
2022/03/03 13:42:59;;;;;;;12.65;10.38;;;;;;;;;;4966075;28;109135;-65
2022/03/03 13:45:27;;;;;;;17.83;10.65;;;;;;;;;;4988123;28;108749;-65
2022/03/03 13:48:07;;;;;;;14.93;10.75;;;;;;;;;;4975109;28;111254;-65
2022/03/03 13:50:35;;;;;;;14.02;11.05;;;;;;;;;;4983613;28;109207;-65
2022/03/03 13:53:23;;;;;;;14.90;10.80;;;;;;;;;;4983782;28;109570;-65
2022/03/03 13:56:06;;;;;;;15.77;11.10;;;;;;;;;;4986216;28;110826;-65
2022/03/03 13:58:36;;;;;;;16.83;10.68;;;;;;;;;;4966891;28;109068;-64
2022/03/03 14:01:03;;;;;;;14.73;10.70;;;;;;;;;;4983645;28;109625;-65
2022/03/03 14:03:34;;;;;;;14.13;10.02;;;;;;;;;;4987501;28;110309;-64
2022/03/03 14:06:03;;;;;;;14.73;10.43;;;;;;;;;;4986648;28;109294;-64
2022/03/03 14:08:33;;;;;;;12.55;10.35;;;;;;;;;;4990059;28;109583;-64
2022/03/03 14:11:00;;;;;;;12.73;10.07;;;;;;;;;;4985481;28;109845;-64
2022/03/03 14:13:29;;;;;;;12.15;9.95;;;;;;;;;;4988054;28;108858;-64